sensor_id;sensor_type;location;lat;lon;timestamp;temperature;humidity
10846;DHT22;5476;51.540;7.186;2023-06-14T00:01:43;22.90;63.10
10846;DHT22;5476;51.540;7.186;2023-06-14T00:04:11;22.80;63.10
10846;DHT22;5476;51.540;7.186;2023-06-14T00:06:38;22.70;63.50
10846;DHT22;5476;51.540;7.186;2023-06-14T00:09:07;22.60;63.70
10846;DHT22;5476;51.540;7.186;2023-06-14T00:14:03;22.60;63.80
10846;DHT22;5476;51.540;7.186;2023-06-14T00:26:21;22.40;64.30
10846;DHT22;5476;51.540;7.186;2023-06-14T00:28:48;22.30;64.60
10846;DHT22;5476;51.540;7.186;2023-06-14T00:31:16;22.30;64.80
10846;DHT22;5476;51.540;7.186;2023-06-14T00:33:43;22.30;65.00
10846;DHT22;5476;51.540;7.186;2023-06-14T00:36:11;22.30;64.90
10846;DHT22;5476;51.540;7.186;2023-06-14T00:41:05;22.30;65.00
10846;DHT22;5476;51.540;7.186;2023-06-14T00:48:29;22.10;65.60
10846;DHT22;5476;51.540;7.186;2023-06-14T00:50:58;22.20;66.10
10846;DHT22;5476;51.540;7.186;2023-06-14T00:53:28;22.00;66.00
10846;DHT22;5476;51.540;7.186;2023-06-14T01:00:49;21.80;66.40
10846;DHT22;5476;51.540;7.186;2023-06-14T01:03:17;21.80;66.40
10846;DHT22;5476;51.540;7.186;2023-06-14T01:05:58;21.60;66.60
10846;DHT22;5476;51.540;7.186;2023-06-14T01:08:34;21.70;66.30
10846;DHT22;5476;51.540;7.186;2023-06-14T01:13:50;21.60;66.20
10846;DHT22;5476;51.540;7.186;2023-06-14T01:16:18;21.60;65.90
10846;DHT22;5476;51.540;7.186;2023-06-14T01:21:23;21.50;65.60
10846;DHT22;5476;51.540;7.186;2023-06-14T01:23:52;21.50;65.80
10846;DHT22;5476;51.540;7.186;2023-06-14T01:28:48;20.60;65.40
10846;DHT22;5476;51.540;7.186;2023-06-14T01:31:18;21.30;65.90
10846;DHT22;5476;51.540;7.186;2023-06-14T01:33:48;21.30;65.90
10846;DHT22;5476;51.540;7.186;2023-06-14T01:36:17;21.20;65.90
10846;DHT22;5476;51.540;7.186;2023-06-14T01:38:47;21.20;66.00
10846;DHT22;5476;51.540;7.186;2023-06-14T01:41:18;21.10;65.90
10846;DHT22;5476;51.540;7.186;2023-06-14T01:43:46;21.10;66.00
10846;DHT22;5476;51.540;7.186;2023-06-14T01:46:15;21.10;65.80
10846;DHT22;5476;51.540;7.186;2023-06-14T01:58:33;20.90;66.10
10846;DHT22;5476;51.540;7.186;2023-06-14T02:05:55;20.70;66.20
10846;DHT22;5476;51.540;7.186;2023-06-14T02:15:45;20.60;66.80
10846;DHT22;5476;51.540;7.186;2023-06-14T02:33:02;20.20;68.00
10846;DHT22;5476;51.540;7.186;2023-06-14T02:45:18;20.00;69.00
10846;DHT22;5476;51.540;7.186;2023-06-14T02:47:46;20.00;69.20
10846;DHT22;5476;51.540;7.186;2023-06-14T02:50:15;20.00;69.40
10846;DHT22;5476;51.540;7.186;2023-06-14T03:00:06;19.70;70.60
10846;DHT22;5476;51.540;7.186;2023-06-14T03:07:33;19.60;71.60
10846;DHT22;5476;51.540;7.186;2023-06-14T03:22:22;19.70;72.90
10846;DHT22;5476;51.540;7.186;2023-06-14T03:24:52;19.70;72.90
10846;DHT22;5476;51.540;7.186;2023-06-14T03:29:47;19.60;73.50
10846;DHT22;5476;51.540;7.186;2023-06-14T03:42:13;19.30;75.70
10846;DHT22;5476;51.540;7.186;2023-06-14T03:49:35;19.30;76.50
10846;DHT22;5476;51.540;7.186;2023-06-14T03:56:58;19.20;77.60
10846;DHT22;5476;51.540;7.186;2023-06-14T03:59:26;19.20;78.50
10846;DHT22;5476;51.540;7.186;2023-06-14T04:01:54;19.20;78.50
10846;DHT22;5476;51.540;7.186;2023-06-14T04:14:18;19.20;80.20
10846;DHT22;5476;51.540;7.186;2023-06-14T04:16:46;19.20;80.50
10846;DHT22;5476;51.540;7.186;2023-06-14T04:21:40;19.20;81.20
10846;DHT22;5476;51.540;7.186;2023-06-14T04:24:07;19.30;81.40
10846;DHT22;5476;51.540;7.186;2023-06-14T04:29:05;19.30;82.00
10846;DHT22;5476;51.540;7.186;2023-06-14T04:34:04;19.30;82.80
10846;DHT22;5476;51.540;7.186;2023-06-14T04:41:28;19.30;84.10
10846;DHT22;5476;51.540;7.186;2023-06-14T04:46:27;19.20;84.50
10846;DHT22;5476;51.540;7.186;2023-06-14T04:51:23;19.30;85.00
10846;DHT22;5476;51.540;7.186;2023-06-14T05:08:44;19.60;85.50
10846;DHT22;5476;51.540;7.186;2023-06-14T05:25:58;19.70;86.60
10846;DHT22;5476;51.540;7.186;2023-06-14T05:28:25;19.80;86.90
10846;DHT22;5476;51.540;7.186;2023-06-14T05:35:46;19.80;87.80
10846;DHT22;5476;51.540;7.186;2023-06-14T05:38:13;19.90;87.20
10846;DHT22;5476;51.540;7.186;2023-06-14T05:40:40;19.90;87.30
10846;DHT22;5476;51.540;7.186;2023-06-14T05:43:08;19.90;87.40
10846;DHT22;5476;51.540;7.186;2023-06-14T05:45:36;19.90;86.90
10846;DHT22;5476;51.540;7.186;2023-06-14T05:48:03;20.00;86.90
10846;DHT22;5476;51.540;7.186;2023-06-14T05:57:52;20.20;86.90
10846;DHT22;5476;51.540;7.186;2023-06-14T06:00:21;20.20;86.40
10846;DHT22;5476;51.540;7.186;2023-06-14T06:02:47;20.20;86.40
10846;DHT22;5476;51.540;7.186;2023-06-14T06:07:42;20.10;86.60
10846;DHT22;5476;51.540;7.186;2023-06-14T06:10:10;20.10;86.90
10846;DHT22;5476;51.540;7.186;2023-06-14T06:12:37;20.30;87.90
10846;DHT22;5476;51.540;7.186;2023-06-14T06:15:05;20.30;87.30
10846;DHT22;5476;51.540;7.186;2023-06-14T06:17:33;20.20;86.90
10846;DHT22;5476;51.540;7.186;2023-06-14T06:34:46;20.40;85.80
10846;DHT22;5476;51.540;7.186;2023-06-14T06:47:04;20.60;86.50
10846;DHT22;5476;51.540;7.186;2023-06-14T06:52:03;20.60;86.60
10846;DHT22;5476;51.540;7.186;2023-06-14T06:54:30;20.70;87.20
10846;DHT22;5476;51.540;7.186;2023-06-14T06:59:25;20.80;86.70
10846;DHT22;5476;51.540;7.186;2023-06-14T07:01:52;20.90;86.30
10846;DHT22;5476;51.540;7.186;2023-06-14T07:09:15;21.10;85.10
10846;DHT22;5476;51.540;7.186;2023-06-14T07:11:44;21.20;84.30
10846;DHT22;5476;51.540;7.186;2023-06-14T07:19:06;21.30;84.80
10846;DHT22;5476;51.540;7.186;2023-06-14T07:24:03;21.40;83.90
10846;DHT22;5476;51.540;7.186;2023-06-14T07:26:33;21.40;83.00
10846;DHT22;5476;51.540;7.186;2023-06-14T07:31:27;21.50;81.80
10846;DHT22;5476;51.540;7.186;2023-06-14T07:33:54;21.40;81.30
10846;DHT22;5476;51.540;7.186;2023-06-14T07:36:22;21.40;81.80
10846;DHT22;5476;51.540;7.186;2023-06-14T07:38:49;21.40;82.00
10846;DHT22;5476;51.540;7.186;2023-06-14T07:41:16;21.50;82.00
10846;DHT22;5476;51.540;7.186;2023-06-14T07:43:44;21.50;81.80
10846;DHT22;5476;51.540;7.186;2023-06-14T07:56:03;21.90;80.60
10846;DHT22;5476;51.540;7.186;2023-06-14T08:00:59;22.00;80.00
10846;DHT22;5476;51.540;7.186;2023-06-14T08:10:51;22.20;77.60
10846;DHT22;5476;51.540;7.186;2023-06-14T08:13:18;22.20;77.40
10846;DHT22;5476;51.540;7.186;2023-06-14T08:15:45;22.20;77.40
10846;DHT22;5476;51.540;7.186;2023-06-14T08:18:13;22.20;77.60
10846;DHT22;5476;51.540;7.186;2023-06-14T08:20:40;22.40;77.50
10846;DHT22;5476;51.540;7.186;2023-06-14T08:25:34;22.50;76.90
10846;DHT22;5476;51.540;7.186;2023-06-14T08:28:01;22.50;76.70
10846;DHT22;5476;51.540;7.186;2023-06-14T08:30:28;22.70;76.10
10846;DHT22;5476;51.540;7.186;2023-06-14T08:35:23;22.90;72.80
10846;DHT22;5476;51.540;7.186;2023-06-14T08:37:50;22.90;71.30
10846;DHT22;5476;51.540;7.186;2023-06-14T08:40:21;23.00;70.60
10846;DHT22;5476;51.540;7.186;2023-06-14T08:42:51;23.00;70.90
10846;DHT22;5476;51.540;7.186;2023-06-14T08:45:18;23.20;69.90
10846;DHT22;5476;51.540;7.186;2023-06-14T08:50:19;23.40;67.80
10846;DHT22;5476;51.540;7.186;2023-06-14T08:52:49;23.50;67.50
10846;DHT22;5476;51.540;7.186;2023-06-14T08:57:52;23.80;66.50
10846;DHT22;5476;51.540;7.186;2023-06-14T09:00:20;23.90;65.90
10846;DHT22;5476;51.540;7.186;2023-06-14T09:05:23;24.10;65.10
10846;DHT22;5476;51.540;7.186;2023-06-14T09:07:51;24.20;65.60
10846;DHT22;5476;51.540;7.186;2023-06-14T09:10:21;24.20;64.30
10846;DHT22;5476;51.540;7.186;2023-06-14T09:12:48;24.20;63.80
10846;DHT22;5476;51.540;7.186;2023-06-14T09:17:42;24.20;63.40
10846;DHT22;5476;51.540;7.186;2023-06-14T09:20:10;24.30;63.10
10846;DHT22;5476;51.540;7.186;2023-06-14T09:25:08;24.20;61.80
10846;DHT22;5476;51.540;7.186;2023-06-14T09:27:37;24.30;62.90
10846;DHT22;5476;51.540;7.186;2023-06-14T09:30:08;24.40;62.70
10846;DHT22;5476;51.540;7.186;2023-06-14T09:32:37;24.50;62.40
10846;DHT22;5476;51.540;7.186;2023-06-14T09:35:06;24.60;61.20
10846;DHT22;5476;51.540;7.186;2023-06-14T09:40:04;24.90;61.40
10846;DHT22;5476;51.540;7.186;2023-06-14T09:42:32;25.00;61.20
10846;DHT22;5476;51.540;7.186;2023-06-14T09:45:02;25.10;61.60
10846;DHT22;5476;51.540;7.186;2023-06-14T09:47:29;25.20;59.40
10846;DHT22;5476;51.540;7.186;2023-06-14T09:49:56;25.00;58.50
10846;DHT22;5476;51.540;7.186;2023-06-14T09:52:23;25.00;58.90
10846;DHT22;5476;51.540;7.186;2023-06-14T09:54:53;25.10;58.80
10846;DHT22;5476;51.540;7.186;2023-06-14T09:57:23;25.00;58.30
10846;DHT22;5476;51.540;7.186;2023-06-14T09:59:57;25.00;58.20
10846;DHT22;5476;51.540;7.186;2023-06-14T10:02:28;24.90;58.50
10846;DHT22;5476;51.540;7.186;2023-06-14T10:05:03;24.90;58.60
10846;DHT22;5476;51.540;7.186;2023-06-14T10:07:35;25.00;59.20
10846;DHT22;5476;51.540;7.186;2023-06-14T10:14:59;25.10;58.50
10846;DHT22;5476;51.540;7.186;2023-06-14T10:17:33;25.10;58.60
10846;DHT22;5476;51.540;7.186;2023-06-14T10:20:16;25.10;58.30
10846;DHT22;5476;51.540;7.186;2023-06-14T10:22:49;25.20;58.90
10846;DHT22;5476;51.540;7.186;2023-06-14T10:25:27;25.20;59.20
10846;DHT22;5476;51.540;7.186;2023-06-14T10:28:03;25.30;59.50
10846;DHT22;5476;51.540;7.186;2023-06-14T10:30:32;25.40;59.40
10846;DHT22;5476;51.540;7.186;2023-06-14T10:33:06;25.50;58.70
10846;DHT22;5476;51.540;7.186;2023-06-14T10:38:09;25.60;58.40
10846;DHT22;5476;51.540;7.186;2023-06-14T10:43:21;25.70;57.80
10846;DHT22;5476;51.540;7.186;2023-06-14T10:46:15;25.60;57.70
10846;DHT22;5476;51.540;7.186;2023-06-14T10:51:17;25.50;57.80
10846;DHT22;5476;51.540;7.186;2023-06-14T10:53:59;25.50;57.50
10846;DHT22;5476;51.540;7.186;2023-06-14T10:56:29;25.60;58.20
10846;DHT22;5476;51.540;7.186;2023-06-14T11:01:45;25.50;58.40
10846;DHT22;5476;51.540;7.186;2023-06-14T11:04:41;25.60;59.00
10846;DHT22;5476;51.540;7.186;2023-06-14T11:07:35;25.60;58.70
10846;DHT22;5476;51.540;7.186;2023-06-14T11:10:15;25.60;59.00
10846;DHT22;5476;51.540;7.186;2023-06-14T11:12:49;25.50;58.40
10846;DHT22;5476;51.540;7.186;2023-06-14T11:17:51;25.50;58.90
10846;DHT22;5476;51.540;7.186;2023-06-14T11:27:42;25.60;59.10
10846;DHT22;5476;51.540;7.186;2023-06-14T11:30:14;25.70;59.10
10846;DHT22;5476;51.540;7.186;2023-06-14T11:32:46;25.70;59.50
10846;DHT22;5476;51.540;7.186;2023-06-14T11:35:15;25.80;59.50
10846;DHT22;5476;51.540;7.186;2023-06-14T11:40:11;25.90;59.70
10846;DHT22;5476;51.540;7.186;2023-06-14T11:42:40;26.20;59.50
10846;DHT22;5476;51.540;7.186;2023-06-14T11:45:08;25.20;58.90
10846;DHT22;5476;51.540;7.186;2023-06-14T11:47:41;26.30;59.00
10846;DHT22;5476;51.540;7.186;2023-06-14T11:50:10;26.30;58.50
10846;DHT22;5476;51.540;7.186;2023-06-14T11:52:38;26.50;58.80
10846;DHT22;5476;51.540;7.186;2023-06-14T11:55:06;26.50;58.70
10846;DHT22;5476;51.540;7.186;2023-06-14T11:57:34;26.70;58.70
10846;DHT22;5476;51.540;7.186;2023-06-14T12:00:04;26.70;58.00
10846;DHT22;5476;51.540;7.186;2023-06-14T12:05:06;26.60;58.30
10846;DHT22;5476;51.540;7.186;2023-06-14T12:07:38;26.60;58.30
10846;DHT22;5476;51.540;7.186;2023-06-14T12:10:08;26.70;58.10
10846;DHT22;5476;51.540;7.186;2023-06-14T12:12:38;26.70;58.30
10846;DHT22;5476;51.540;7.186;2023-06-14T12:15:07;26.70;58.10
10846;DHT22;5476;51.540;7.186;2023-06-14T12:20:05;26.70;58.20
10846;DHT22;5476;51.540;7.186;2023-06-14T12:25:05;26.80;58.20
10846;DHT22;5476;51.540;7.186;2023-06-14T12:30:05;27.10;57.50
10846;DHT22;5476;51.540;7.186;2023-06-14T12:42:26;27.20;57.40
10846;DHT22;5476;51.540;7.186;2023-06-14T12:49:48;27.10;57.50
10846;DHT22;5476;51.540;7.186;2023-06-14T12:54:44;27.20;57.20
10846;DHT22;5476;51.540;7.186;2023-06-14T12:59:39;27.40;57.00
10846;DHT22;5476;51.540;7.186;2023-06-14T13:02:13;27.50;56.90
10846;DHT22;5476;51.540;7.186;2023-06-14T13:12:03;27.70;55.60
10846;DHT22;5476;51.540;7.186;2023-06-14T13:16:59;27.60;55.20
10846;DHT22;5476;51.540;7.186;2023-06-14T13:21:53;27.50;54.90
10846;DHT22;5476;51.540;7.186;2023-06-14T13:26:47;27.50;55.40
10846;DHT22;5476;51.540;7.186;2023-06-14T13:34:10;27.60;55.70
10846;DHT22;5476;51.540;7.186;2023-06-14T13:36:40;27.70;55.60
10846;DHT22;5476;51.540;7.186;2023-06-14T13:41:35;27.70;55.00
10846;DHT22;5476;51.540;7.186;2023-06-14T13:44:03;27.80;55.00
10846;DHT22;5476;51.540;7.186;2023-06-14T13:48:59;28.00;55.00
10846;DHT22;5476;51.540;7.186;2023-06-14T13:51:28;27.90;54.40
10846;DHT22;5476;51.540;7.186;2023-06-14T14:08:42;28.20;54.40
10846;DHT22;5476;51.540;7.186;2023-06-14T14:16:04;28.50;54.00
10846;DHT22;5476;51.540;7.186;2023-06-14T14:25:56;28.50;53.70
10846;DHT22;5476;51.540;7.186;2023-06-14T14:28:23;28.50;53.70
10846;DHT22;5476;51.540;7.186;2023-06-14T14:30:51;28.50;53.60
10846;DHT22;5476;51.540;7.186;2023-06-14T14:38:14;28.60;53.50
10846;DHT22;5476;51.540;7.186;2023-06-14T14:40:42;28.70;53.70
10846;DHT22;5476;51.540;7.186;2023-06-14T14:43:45;28.80;53.50
10846;DHT22;5476;51.540;7.186;2023-06-14T14:46:12;29.10;53.20
10846;DHT22;5476;51.540;7.186;2023-06-14T14:48:39;29.30;52.60
10846;DHT22;5476;51.540;7.186;2023-06-14T14:51:06;29.40;51.90
10846;DHT22;5476;51.540;7.186;2023-06-14T14:53:32;29.60;51.90
10846;DHT22;5476;51.540;7.186;2023-06-14T14:56:00;29.70;51.10
10846;DHT22;5476;51.540;7.186;2023-06-14T14:58:27;29.40;51.80
10846;DHT22;5476;51.540;7.186;2023-06-14T15:00:55;29.50;51.90
10846;DHT22;5476;51.540;7.186;2023-06-14T15:03:22;29.40;52.00
10846;DHT22;5476;51.540;7.186;2023-06-14T15:05:49;29.30;51.80
10846;DHT22;5476;51.540;7.186;2023-06-14T15:08:15;29.30;52.10
10846;DHT22;5476;51.540;7.186;2023-06-14T15:10:42;29.20;52.10
10846;DHT22;5476;51.540;7.186;2023-06-14T15:13:10;29.20;51.80
10846;DHT22;5476;51.540;7.186;2023-06-14T15:15:37;29.80;51.10
10846;DHT22;5476;51.540;7.186;2023-06-14T15:18:06;30.00;50.30
10846;DHT22;5476;51.540;7.186;2023-06-14T15:20:33;30.20;50.10
10846;DHT22;5476;51.540;7.186;2023-06-14T15:23:00;29.80;50.70
10846;DHT22;5476;51.540;7.186;2023-06-14T15:25:27;30.00;49.80
10846;DHT22;5476;51.540;7.186;2023-06-14T15:27:56;30.10;49.60
10846;DHT22;5476;51.540;7.186;2023-06-14T15:30:27;29.60;49.10
10846;DHT22;5476;51.540;7.186;2023-06-14T15:32:54;29.40;50.10
10846;DHT22;5476;51.540;7.186;2023-06-14T15:35:23;29.40;50.20
10846;DHT22;5476;51.540;7.186;2023-06-14T15:37:50;29.90;49.50
10846;DHT22;5476;51.540;7.186;2023-06-14T15:40:17;29.70;50.00
10846;DHT22;5476;51.540;7.186;2023-06-14T15:42:44;29.50;50.20
10846;DHT22;5476;51.540;7.186;2023-06-14T15:45:11;29.40;50.30
10846;DHT22;5476;51.540;7.186;2023-06-14T15:47:38;29.90;49.80
10846;DHT22;5476;51.540;7.186;2023-06-14T15:50:06;29.70;49.70
10846;DHT22;5476;51.540;7.186;2023-06-14T15:52:35;29.40;50.10
10846;DHT22;5476;51.540;7.186;2023-06-14T15:55:02;29.40;50.10
10846;DHT22;5476;51.540;7.186;2023-06-14T15:57:29;29.30;50.20
10846;DHT22;5476;51.540;7.186;2023-06-14T15:59:56;29.30;50.20
10846;DHT22;5476;51.540;7.186;2023-06-14T16:02:23;29.30;49.80
10846;DHT22;5476;51.540;7.186;2023-06-14T16:04:51;29.30;49.80
10846;DHT22;5476;51.540;7.186;2023-06-14T16:07:18;29.30;49.60
10846;DHT22;5476;51.540;7.186;2023-06-14T16:09:46;29.40;50.10
10846;DHT22;5476;51.540;7.186;2023-06-14T16:12:13;29.30;49.70
10846;DHT22;5476;51.540;7.186;2023-06-14T16:14:41;29.20;50.00
10846;DHT22;5476;51.540;7.186;2023-06-14T16:17:09;29.30;50.30
10846;DHT22;5476;51.540;7.186;2023-06-14T16:19:36;29.30;50.50
10846;DHT22;5476;51.540;7.186;2023-06-14T16:22:03;29.30;50.10
10846;DHT22;5476;51.540;7.186;2023-06-14T16:24:30;29.30;50.60
10846;DHT22;5476;51.540;7.186;2023-06-14T16:26:59;29.20;49.70
10846;DHT22;5476;51.540;7.186;2023-06-14T21:14:47;24.10;68.10
10846;DHT22;5476;51.540;7.186;2023-06-14T21:17:14;24.10;67.80
10846;DHT22;5476;51.540;7.186;2023-06-14T21:19:41;24.10;68.30
10846;DHT22;5476;51.540;7.186;2023-06-14T21:22:08;24.20;68.70
10846;DHT22;5476;51.540;7.186;2023-06-14T21:24:35;24.20;69.00
10846;DHT22;5476;51.540;7.186;2023-06-14T21:27:03;26.90;71.20
10846;DHT22;5476;51.540;7.186;2023-06-14T21:29:31;24.30;69.80
10846;DHT22;5476;51.540;7.186;2023-06-14T21:31:59;24.40;69.40
10846;DHT22;5476;51.540;7.186;2023-06-14T21:34:26;24.40;69.00
10846;DHT22;5476;51.540;7.186;2023-06-14T21:36:53;24.50;69.80
10846;DHT22;5476;51.540;7.186;2023-06-14T21:39:21;24.50;69.50
10846;DHT22;5476;51.540;7.186;2023-06-14T21:41:48;24.40;69.90
10846;DHT22;5476;51.540;7.186;2023-06-14T21:44:15;24.40;70.90
10846;DHT22;5476;51.540;7.186;2023-06-14T21:46:42;24.40;70.80
10846;DHT22;5476;51.540;7.186;2023-06-14T21:49:10;24.40;71.20
10846;DHT22;5476;51.540;7.186;2023-06-14T21:51:37;24.40;70.70
10846;DHT22;5476;51.540;7.186;2023-06-14T21:54:04;24.40;71.20
10846;DHT22;5476;51.540;7.186;2023-06-14T21:56:31;24.40;71.70
10846;DHT22;5476;51.540;7.186;2023-06-14T21:59:07;24.40;71.40
10846;DHT22;5476;51.540;7.186;2023-06-14T22:01:34;24.30;72.00
10846;DHT22;5476;51.540;7.186;2023-06-14T22:04:01;24.40;71.80
10846;DHT22;5476;51.540;7.186;2023-06-14T22:06:29;24.30;71.90
10846;DHT22;5476;51.540;7.186;2023-06-14T22:08:56;24.20;72.60
10846;DHT22;5476;51.540;7.186;2023-06-14T22:11:23;24.10;72.50
10846;DHT22;5476;51.540;7.186;2023-06-14T22:13:54;24.00;74.50
10846;DHT22;5476;51.540;7.186;2023-06-14T22:16:21;24.00;74.10
10846;DHT22;5476;51.540;7.186;2023-06-14T22:18:48;23.90;74.50
10846;DHT22;5476;51.540;7.186;2023-06-14T22:21:15;23.80;75.20
10846;DHT22;5476;51.540;7.186;2023-06-14T22:23:46;23.70;75.70
10846;DHT22;5476;51.540;7.186;2023-06-14T22:26:13;23.60;76.40
10846;DHT22;5476;51.540;7.186;2023-06-14T22:28:40;23.60;77.30
10846;DHT22;5476;51.540;7.186;2023-06-14T22:31:10;23.50;78.00
10846;DHT22;5476;51.540;7.186;2023-06-14T22:33:39;23.40;78.80
10846;DHT22;5476;51.540;7.186;2023-06-14T22:36:07;23.40;79.40
10846;DHT22;5476;51.540;7.186;2023-06-14T22:38:35;23.40;80.50
10846;DHT22;5476;51.540;7.186;2023-06-14T22:41:06;23.30;81.10
10846;DHT22;5476;51.540;7.186;2023-06-14T22:43:35;23.30;82.20
10846;DHT22;5476;51.540;7.186;2023-06-14T22:46:13;23.20;83.10
10846;DHT22;5476;51.540;7.186;2023-06-14T22:48:48;23.10;83.90
10846;DHT22;5476;51.540;7.186;2023-06-14T22:51:17;23.10;85.20
10846;DHT22;5476;51.540;7.186;2023-06-14T22:53:44;23.00;86.10
10846;DHT22;5476;51.540;7.186;2023-06-14T22:56:14;23.00;86.80
10846;DHT22;5476;51.540;7.186;2023-06-14T22:58:41;22.90;87.80
10846;DHT22;5476;51.540;7.186;2023-06-14T23:01:11;22.80;88.50
10846;DHT22;5476;51.540;7.186;2023-06-14T23:03:39;22.80;90.00
10846;DHT22;5476;51.540;7.186;2023-06-14T23:06:06;22.70;90.40
10846;DHT22;5476;51.540;7.186;2023-06-14T23:08:35;22.70;90.80
10846;DHT22;5476;51.540;7.186;2023-06-14T23:11:08;22.70;91.40
10846;DHT22;5476;51.540;7.186;2023-06-14T23:13:39;22.70;91.70
10846;DHT22;5476;51.540;7.186;2023-06-14T23:16:07;22.60;92.30
10846;DHT22;5476;51.540;7.186;2023-06-14T23:18:34;22.60;92.40
10846;DHT22;5476;51.540;7.186;2023-06-14T23:21:01;22.50;92.90
10846;DHT22;5476;51.540;7.186;2023-06-14T23:23:28;22.50;93.20
10846;DHT22;5476;51.540;7.186;2023-06-14T23:25:55;22.40;93.70
10846;DHT22;5476;51.540;7.186;2023-06-14T23:28:22;22.40;93.70
10846;DHT22;5476;51.540;7.186;2023-06-14T23:30:50;22.30;94.10
10846;DHT22;5476;51.540;7.186;2023-06-14T23:33:18;22.30;94.50
10846;DHT22;5476;51.540;7.186;2023-06-14T23:35:46;22.30;95.00
10846;DHT22;5476;51.540;7.186;2023-06-14T23:38:17;22.20;95.30
10846;DHT22;5476;51.540;7.186;2023-06-14T23:40:46;22.10;95.70
10846;DHT22;5476;51.540;7.186;2023-06-14T23:43:15;22.10;95.80
10846;DHT22;5476;51.540;7.186;2023-06-14T23:45:44;22.10;96.20
10846;DHT22;5476;51.540;7.186;2023-06-14T23:48:13;22.00;96.20
10846;DHT22;5476;51.540;7.186;2023-06-14T23:50:41;21.60;96.20
10846;DHT22;5476;51.540;7.186;2023-06-14T23:53:08;21.90;96.10
10846;DHT22;5476;51.540;7.186;2023-06-14T23:55:35;21.90;96.70
10846;DHT22;5476;51.540;7.186;2023-06-14T23:58:03;21.90;96.90
